LFRK 181700Z AUTO 34009KT 310V010 9999 FEW046 21/15 Q1016 NOSIG

ElémentsDécodage
LFRK Station météo située sur l'aérodrome de CAEN Carpiquet
181700Z émis le 18 du mois à 17h00 UTC
AUTO Bulletin édité par un automate
34009KT vent du 340°, 09 noeuds
310V010 vent de direction variable entre 310° et 010°
9999 visibilité horizontale supérieure à 10 Km
FEW046 nuages rares (1/8 à 2/8) à 4600 pieds
21/15 température 21°C, point de rosée 15°C
 soit une humidité relative de 69%
Q1016 la pression au niveau de la mer (QNH) est de 1016 hPa
NOSIG Pas de changement significatif prévu au cours des deux heures suivant l'heure de l'observation